sensor_id;sensor_type;location;lat;lon;timestamp;P1;durP1;ratioP1;P2;durP2;ratioP2
66327;SDS011;53133;52.862;6.602;2023-06-10T00:00:35;10.30;;;5.15;;
66327;SDS011;53133;52.862;6.602;2023-06-10T00:03:01;12.43;;;5.47;;
66327;SDS011;53133;52.862;6.602;2023-06-10T00:05:27;11.88;;;5.95;;
66327;SDS011;53133;52.862;6.602;2023-06-10T00:07:55;9.32;;;5.43;;
66327;SDS011;53133;52.862;6.602;2023-06-10T00:10:21;9.77;;;5.72;;
66327;SDS011;53133;52.862;6.602;2023-06-10T00:12:47;11.98;;;5.50;;
66327;SDS011;53133;52.862;6.602;2023-06-10T00:15:13;8.55;;;4.97;;
66327;SDS011;53133;52.862;6.602;2023-06-10T00:17:38;10.05;;;5.50;;
66327;SDS011;53133;52.862;6.602;2023-06-10T00:20:06;9.35;;;5.25;;
66327;SDS011;53133;52.862;6.602;2023-06-10T00:22:34;10.23;;;5.68;;
66327;SDS011;53133;52.862;6.602;2023-06-10T00:24:59;8.30;;;5.13;;
66327;SDS011;53133;52.862;6.602;2023-06-10T00:27:25;8.18;;;5.32;;
66327;SDS011;53133;52.862;6.602;2023-06-10T00:29:56;9.50;;;6.03;;
66327;SDS011;53133;52.862;6.602;2023-06-10T00:32:22;7.38;;;5.40;;
66327;SDS011;53133;52.862;6.602;2023-06-10T00:34:47;7.47;;;5.38;;
66327;SDS011;53133;52.862;6.602;2023-06-10T00:37:13;7.25;;;5.40;;
66327;SDS011;53133;52.862;6.602;2023-06-10T00:39:38;10.07;;;5.80;;
66327;SDS011;53133;52.862;6.602;2023-06-10T00:42:04;9.00;;;5.80;;
66327;SDS011;53133;52.862;6.602;2023-06-10T00:44:32;8.95;;;6.13;;
66327;SDS011;53133;52.862;6.602;2023-06-10T00:46:57;10.18;;;5.45;;
66327;SDS011;53133;52.862;6.602;2023-06-10T00:49:23;9.82;;;5.97;;
66327;SDS011;53133;52.862;6.602;2023-06-10T00:51:50;10.52;;;5.60;;
66327;SDS011;53133;52.862;6.602;2023-06-10T00:54:17;9.65;;;5.63;;
66327;SDS011;53133;52.862;6.602;2023-06-10T00:56:43;10.25;;;6.05;;
66327;SDS011;53133;52.862;6.602;2023-06-10T00:59:08;8.30;;;5.55;;
66327;SDS011;53133;52.862;6.602;2023-06-10T01:01:34;7.25;;;5.57;;
66327;SDS011;53133;52.862;6.602;2023-06-10T01:04:02;10.98;;;5.95;;
66327;SDS011;53133;52.862;6.602;2023-06-10T01:06:36;8.10;;;5.80;;
66327;SDS011;53133;52.862;6.602;2023-06-10T01:09:21;10.95;;;6.30;;
66327;SDS011;53133;52.862;6.602;2023-06-10T01:14:26;10.52;;;6.82;;
66327;SDS011;53133;52.862;6.602;2023-06-10T01:16:52;13.32;;;6.57;;
66327;SDS011;53133;52.862;6.602;2023-06-10T01:19:21;13.63;;;6.20;;
66327;SDS011;53133;52.862;6.602;2023-06-10T01:21:49;11.55;;;5.63;;
66327;SDS011;53133;52.862;6.602;2023-06-10T01:24:16;10.15;;;6.18;;
66327;SDS011;53133;52.862;6.602;2023-06-10T01:26:43;10.85;;;6.68;;
66327;SDS011;53133;52.862;6.602;2023-06-10T01:29:11;9.52;;;5.97;;
66327;SDS011;53133;52.862;6.602;2023-06-10T01:31:53;11.43;;;6.40;;
66327;SDS011;53133;52.862;6.602;2023-06-10T01:34:23;12.50;;;6.83;;
66327;SDS011;53133;52.862;6.602;2023-06-10T01:36:49;12.70;;;6.53;;
66327;SDS011;53133;52.862;6.602;2023-06-10T01:39:16;10.75;;;6.47;;
66327;SDS011;53133;52.862;6.602;2023-06-10T01:41:44;11.35;;;6.65;;
66327;SDS011;53133;52.862;6.602;2023-06-10T01:44:10;12.80;;;6.68;;
66327;SDS011;53133;52.862;6.602;2023-06-10T01:46:36;11.18;;;6.55;;
66327;SDS011;53133;52.862;6.602;2023-06-10T01:49:01;13.15;;;6.85;;
66327;SDS011;53133;52.862;6.602;2023-06-10T01:51:27;9.73;;;6.68;;
66327;SDS011;53133;52.862;6.602;2023-06-10T01:53:53;11.45;;;6.47;;
66327;SDS011;53133;52.862;6.602;2023-06-10T01:56:18;10.20;;;6.63;;
66327;SDS011;53133;52.862;6.602;2023-06-10T01:58:47;10.30;;;6.03;;
66327;SDS011;53133;52.862;6.602;2023-06-10T02:01:13;8.77;;;6.38;;
66327;SDS011;53133;52.862;6.602;2023-06-10T02:03:39;12.77;;;6.75;;
66327;SDS011;53133;52.862;6.602;2023-06-10T02:06:05;13.82;;;6.80;;
66327;SDS011;53133;52.862;6.602;2023-06-10T02:08:31;10.10;;;6.00;;
66327;SDS011;53133;52.862;6.602;2023-06-10T02:10:56;11.45;;;6.22;;
66327;SDS011;53133;52.862;6.602;2023-06-10T02:13:22;13.48;;;6.55;;
66327;SDS011;53133;52.862;6.602;2023-06-10T02:15:47;14.20;;;7.10;;
66327;SDS011;53133;52.862;6.602;2023-06-10T02:18:13;8.68;;;6.13;;
66327;SDS011;53133;52.862;6.602;2023-06-10T02:20:39;10.57;;;6.47;;
66327;SDS011;53133;52.862;6.602;2023-06-10T02:23:04;10.20;;;6.00;;
66327;SDS011;53133;52.862;6.602;2023-06-10T02:25:30;11.30;;;6.82;;
66327;SDS011;53133;52.862;6.602;2023-06-10T02:27:56;11.63;;;6.82;;
66327;SDS011;53133;52.862;6.602;2023-06-10T02:30:21;13.43;;;6.63;;
66327;SDS011;53133;52.862;6.602;2023-06-10T02:32:47;10.85;;;6.40;;
66327;SDS011;53133;52.862;6.602;2023-06-10T02:35:16;12.05;;;6.15;;
66327;SDS011;53133;52.862;6.602;2023-06-10T02:37:42;9.70;;;5.90;;
66327;SDS011;53133;52.862;6.602;2023-06-10T02:40:08;11.48;;;6.55;;
66327;SDS011;53133;52.862;6.602;2023-06-10T02:42:35;9.85;;;5.95;;
66327;SDS011;53133;52.862;6.602;2023-06-10T02:45:01;12.13;;;6.80;;
66327;SDS011;53133;52.862;6.602;2023-06-10T02:47:27;12.25;;;6.40;;
66327;SDS011;53133;52.862;6.602;2023-06-10T02:49:52;8.55;;;6.20;;
66327;SDS011;53133;52.862;6.602;2023-06-10T02:52:18;12.32;;;6.50;;
66327;SDS011;53133;52.862;6.602;2023-06-10T02:54:43;9.10;;;6.32;;
66327;SDS011;53133;52.862;6.602;2023-06-10T02:57:10;11.93;;;6.28;;
66327;SDS011;53133;52.862;6.602;2023-06-10T02:59:36;9.38;;;6.45;;
66327;SDS011;53133;52.862;6.602;2023-06-10T03:02:01;9.30;;;5.78;;
66327;SDS011;53133;52.862;6.602;2023-06-10T03:04:27;10.70;;;6.30;;
66327;SDS011;53133;52.862;6.602;2023-06-10T03:06:54;10.65;;;6.05;;
66327;SDS011;53133;52.862;6.602;2023-06-10T03:09:20;11.38;;;6.65;;
66327;SDS011;53133;52.862;6.602;2023-06-10T03:11:46;8.95;;;6.40;;
66327;SDS011;53133;52.862;6.602;2023-06-10T03:14:11;8.95;;;6.00;;
66327;SDS011;53133;52.862;6.602;2023-06-10T03:16:37;10.57;;;6.53;;
66327;SDS011;53133;52.862;6.602;2023-06-10T03:19:06;9.20;;;6.32;;
66327;SDS011;53133;52.862;6.602;2023-06-10T03:21:33;9.07;;;6.57;;
66327;SDS011;53133;52.862;6.602;2023-06-10T03:24:02;7.68;;;5.78;;
66327;SDS011;53133;52.862;6.602;2023-06-10T03:26:28;12.48;;;6.18;;
66327;SDS011;53133;52.862;6.602;2023-06-10T03:28:54;10.32;;;6.40;;
66327;SDS011;53133;52.862;6.602;2023-06-10T03:31:19;9.10;;;6.38;;
66327;SDS011;53133;52.862;6.602;2023-06-10T03:33:45;9.57;;;5.80;;
66327;SDS011;53133;52.862;6.602;2023-06-10T03:36:10;10.40;;;6.25;;
66327;SDS011;53133;52.862;6.602;2023-06-10T03:38:36;8.52;;;5.93;;
66327;SDS011;53133;52.862;6.602;2023-06-10T03:41:02;13.27;;;6.43;;
66327;SDS011;53133;52.862;6.602;2023-06-10T03:43:28;7.85;;;5.97;;
66327;SDS011;53133;52.862;6.602;2023-06-10T03:45:53;14.13;;;6.50;;
66327;SDS011;53133;52.862;6.602;2023-06-10T03:48:19;7.68;;;5.68;;
66327;SDS011;53133;52.862;6.602;2023-06-10T03:50:44;11.07;;;6.30;;
66327;SDS011;53133;52.862;6.602;2023-06-10T03:53:12;8.13;;;5.85;;
66327;SDS011;53133;52.862;6.602;2023-06-10T03:55:38;12.30;;;6.57;;
66327;SDS011;53133;52.862;6.602;2023-06-10T03:58:03;8.02;;;5.78;;
66327;SDS011;53133;52.862;6.602;2023-06-10T04:00:29;11.18;;;5.97;;
66327;SDS011;53133;52.862;6.602;2023-06-10T04:02:55;11.55;;;5.68;;
66327;SDS011;53133;52.862;6.602;2023-06-10T04:05:23;10.43;;;5.82;;
66327;SDS011;53133;52.862;6.602;2023-06-10T04:07:49;10.75;;;5.68;;
66327;SDS011;53133;52.862;6.602;2023-06-10T04:10:15;9.63;;;5.43;;
66327;SDS011;53133;52.862;6.602;2023-06-10T04:12:41;13.80;;;5.65;;
66327;SDS011;53133;52.862;6.602;2023-06-10T04:15:06;10.80;;;6.43;;
66327;SDS011;53133;52.862;6.602;2023-06-10T04:17:33;12.07;;;6.38;;
66327;SDS011;53133;52.862;6.602;2023-06-10T04:19:58;10.63;;;5.88;;
66327;SDS011;53133;52.862;6.602;2023-06-10T04:22:25;9.30;;;5.88;;
66327;SDS011;53133;52.862;6.602;2023-06-10T04:24:51;10.70;;;6.10;;
66327;SDS011;53133;52.862;6.602;2023-06-10T04:27:17;11.85;;;6.30;;
66327;SDS011;53133;52.862;6.602;2023-06-10T04:29:43;10.07;;;5.82;;
66327;SDS011;53133;52.862;6.602;2023-06-10T04:32:08;11.13;;;6.57;;
66327;SDS011;53133;52.862;6.602;2023-06-10T04:34:34;11.50;;;6.07;;
66327;SDS011;53133;52.862;6.602;2023-06-10T04:37:00;13.05;;;6.10;;
66327;SDS011;53133;52.862;6.602;2023-06-10T04:39:25;10.02;;;5.90;;
66327;SDS011;53133;52.862;6.602;2023-06-10T04:41:51;12.40;;;6.43;;
66327;SDS011;53133;52.862;6.602;2023-06-10T04:44:17;11.25;;;6.15;;
66327;SDS011;53133;52.862;6.602;2023-06-10T04:46:43;12.82;;;6.35;;
66327;SDS011;53133;52.862;6.602;2023-06-10T04:49:10;11.07;;;6.38;;
66327;SDS011;53133;52.862;6.602;2023-06-10T04:51:36;10.00;;;5.93;;
66327;SDS011;53133;52.862;6.602;2023-06-10T04:54:02;12.30;;;6.30;;
66327;SDS011;53133;52.862;6.602;2023-06-10T04:56:28;9.65;;;6.57;;
66327;SDS011;53133;52.862;6.602;2023-06-10T04:58:55;12.80;;;6.13;;
66327;SDS011;53133;52.862;6.602;2023-06-10T05:01:21;11.45;;;5.78;;
66327;SDS011;53133;52.862;6.602;2023-06-10T05:03:47;11.30;;;5.97;;
66327;SDS011;53133;52.862;6.602;2023-06-10T05:06:12;11.38;;;6.65;;
66327;SDS011;53133;52.862;6.602;2023-06-10T05:08:38;10.55;;;5.95;;
66327;SDS011;53133;52.862;6.602;2023-06-10T05:11:04;13.50;;;6.40;;
66327;SDS011;53133;52.862;6.602;2023-06-10T05:13:29;10.20;;;6.32;;
66327;SDS011;53133;52.862;6.602;2023-06-10T05:15:55;14.15;;;7.00;;
66327;SDS011;53133;52.862;6.602;2023-06-10T05:18:20;12.57;;;6.40;;
66327;SDS011;53133;52.862;6.602;2023-06-10T05:20:46;11.38;;;6.00;;
66327;SDS011;53133;52.862;6.602;2023-06-10T05:23:12;11.27;;;6.25;;
66327;SDS011;53133;52.862;6.602;2023-06-10T05:25:37;12.05;;;6.25;;
66327;SDS011;53133;52.862;6.602;2023-06-10T05:28:03;10.70;;;6.22;;
66327;SDS011;53133;52.862;6.602;2023-06-10T05:30:28;11.40;;;6.60;;
66327;SDS011;53133;52.862;6.602;2023-06-10T05:32:54;11.05;;;6.70;;
66327;SDS011;53133;52.862;6.602;2023-06-10T05:35:21;13.52;;;6.50;;
66327;SDS011;53133;52.862;6.602;2023-06-10T05:37:47;13.05;;;6.88;;
66327;SDS011;53133;52.862;6.602;2023-06-10T05:40:12;9.60;;;6.57;;
66327;SDS011;53133;52.862;6.602;2023-06-10T05:42:38;14.55;;;6.65;;
66327;SDS011;53133;52.862;6.602;2023-06-10T05:45:05;11.90;;;6.68;;
66327;SDS011;53133;52.862;6.602;2023-06-10T05:47:31;10.85;;;6.50;;
66327;SDS011;53133;52.862;6.602;2023-06-10T05:49:57;9.85;;;6.97;;
66327;SDS011;53133;52.862;6.602;2023-06-10T05:52:22;12.02;;;6.60;;
66327;SDS011;53133;52.862;6.602;2023-06-10T05:54:48;10.70;;;6.63;;
66327;SDS011;53133;52.862;6.602;2023-06-10T05:57:15;12.73;;;6.95;;
66327;SDS011;53133;52.862;6.602;2023-06-10T05:59:40;12.00;;;6.57;;
66327;SDS011;53133;52.862;6.602;2023-06-10T06:02:06;13.73;;;6.88;;
66327;SDS011;53133;52.862;6.602;2023-06-10T06:04:32;12.35;;;6.57;;
66327;SDS011;53133;52.862;6.602;2023-06-10T06:06:57;8.60;;;6.70;;
66327;SDS011;53133;52.862;6.602;2023-06-10T06:09:23;12.25;;;7.10;;
66327;SDS011;53133;52.862;6.602;2023-06-10T06:11:48;15.13;;;7.05;;
66327;SDS011;53133;52.862;6.602;2023-06-10T06:14:14;11.25;;;6.43;;
66327;SDS011;53133;52.862;6.602;2023-06-10T06:16:40;13.30;;;7.05;;
66327;SDS011;53133;52.862;6.602;2023-06-10T06:19:05;13.88;;;7.35;;
66327;SDS011;53133;52.862;6.602;2023-06-10T06:21:31;12.43;;;6.80;;
66327;SDS011;53133;52.862;6.602;2023-06-10T06:23:57;16.00;;;7.53;;
66327;SDS011;53133;52.862;6.602;2023-06-10T06:26:24;14.77;;;7.47;;
66327;SDS011;53133;52.862;6.602;2023-06-10T06:28:52;9.48;;;6.13;;
66327;SDS011;53133;52.862;6.602;2023-06-10T06:31:18;12.65;;;6.30;;
66327;SDS011;53133;52.862;6.602;2023-06-10T06:33:43;12.65;;;6.90;;
66327;SDS011;53133;52.862;6.602;2023-06-10T06:36:09;14.38;;;7.38;;
66327;SDS011;53133;52.862;6.602;2023-06-10T06:38:34;9.98;;;6.47;;
66327;SDS011;53133;52.862;6.602;2023-06-10T06:41:03;12.93;;;6.72;;
66327;SDS011;53133;52.862;6.602;2023-06-10T06:43:31;13.25;;;6.53;;
66327;SDS011;53133;52.862;6.602;2023-06-10T06:45:57;11.05;;;6.35;;
66327;SDS011;53133;52.862;6.602;2023-06-10T06:48:23;10.02;;;6.60;;
66327;SDS011;53133;52.862;6.602;2023-06-10T06:50:49;14.50;;;7.32;;
66327;SDS011;53133;52.862;6.602;2023-06-10T06:53:14;9.43;;;6.32;;
66327;SDS011;53133;52.862;6.602;2023-06-10T06:55:40;12.27;;;6.75;;
66327;SDS011;53133;52.862;6.602;2023-06-10T06:58:06;14.13;;;7.38;;
66327;SDS011;53133;52.862;6.602;2023-06-10T07:00:31;11.52;;;6.47;;
66327;SDS011;53133;52.862;6.602;2023-06-10T07:02:57;12.90;;;6.10;;
66327;SDS011;53133;52.862;6.602;2023-06-10T07:05:23;11.50;;;6.07;;
66327;SDS011;53133;52.862;6.602;2023-06-10T07:07:52;14.60;;;6.93;;
66327;SDS011;53133;52.862;6.602;2023-06-10T07:10:23;12.68;;;6.15;;
66327;SDS011;53133;52.862;6.602;2023-06-10T07:12:49;11.85;;;6.30;;
66327;SDS011;53133;52.862;6.602;2023-06-10T07:15:15;10.77;;;6.30;;
66327;SDS011;53133;52.862;6.602;2023-06-10T07:17:41;9.00;;;6.00;;
66327;SDS011;53133;52.862;6.602;2023-06-10T07:20:07;13.77;;;6.25;;
66327;SDS011;53133;52.862;6.602;2023-06-10T07:22:33;12.30;;;6.75;;
66327;SDS011;53133;52.862;6.602;2023-06-10T07:24:58;13.27;;;6.68;;
66327;SDS011;53133;52.862;6.602;2023-06-10T07:27:24;12.88;;;6.70;;
66327;SDS011;53133;52.862;6.602;2023-06-10T07:29:50;12.45;;;6.60;;
66327;SDS011;53133;52.862;6.602;2023-06-10T07:32:16;12.43;;;6.22;;
66327;SDS011;53133;52.862;6.602;2023-06-10T07:34:42;12.02;;;6.25;;
66327;SDS011;53133;52.862;6.602;2023-06-10T07:37:07;13.48;;;6.65;;
66327;SDS011;53133;52.862;6.602;2023-06-10T07:39:33;9.77;;;6.43;;
66327;SDS011;53133;52.862;6.602;2023-06-10T07:41:59;11.43;;;6.28;;
66327;SDS011;53133;52.862;6.602;2023-06-10T07:44:25;13.63;;;6.88;;
66327;SDS011;53133;52.862;6.602;2023-06-10T07:46:51;11.18;;;6.10;;
66327;SDS011;53133;52.862;6.602;2023-06-10T07:49:16;10.88;;;6.22;;
66327;SDS011;53133;52.862;6.602;2023-06-10T07:51:42;12.30;;;6.45;;
66327;SDS011;53133;52.862;6.602;2023-06-10T07:54:07;11.15;;;6.45;;
66327;SDS011;53133;52.862;6.602;2023-06-10T07:56:33;9.88;;;6.95;;
66327;SDS011;53133;52.862;6.602;2023-06-10T07:58:59;10.23;;;6.60;;
66327;SDS011;53133;52.862;6.602;2023-06-10T08:01:24;9.80;;;6.80;;
66327;SDS011;53133;52.862;6.602;2023-06-10T08:03:50;11.70;;;7.40;;
66327;SDS011;53133;52.862;6.602;2023-06-10T08:06:16;12.70;;;7.38;;
66327;SDS011;53133;52.862;6.602;2023-06-10T08:08:44;11.43;;;7.07;;
66327;SDS011;53133;52.862;6.602;2023-06-10T08:11:11;12.30;;;6.88;;
66327;SDS011;53133;52.862;6.602;2023-06-10T08:13:36;9.90;;;6.40;;
66327;SDS011;53133;52.862;6.602;2023-06-10T08:16:05;10.02;;;6.78;;
66327;SDS011;53133;52.862;6.602;2023-06-10T08:18:30;11.40;;;6.78;;
66327;SDS011;53133;52.862;6.602;2023-06-10T08:20:56;11.52;;;7.05;;
66327;SDS011;53133;52.862;6.602;2023-06-10T08:23:22;9.75;;;6.80;;
66327;SDS011;53133;52.862;6.602;2023-06-10T08:25:48;9.70;;;6.82;;
66327;SDS011;53133;52.862;6.602;2023-06-10T08:28:13;11.88;;;6.55;;
66327;SDS011;53133;52.862;6.602;2023-06-10T08:30:39;12.77;;;6.18;;
66327;SDS011;53133;52.862;6.602;2023-06-10T08:33:05;9.32;;;5.93;;
66327;SDS011;53133;52.862;6.602;2023-06-10T08:35:31;10.90;;;6.05;;
66327;SDS011;53133;52.862;6.602;2023-06-10T08:37:56;10.63;;;6.13;;
66327;SDS011;53133;52.862;6.602;2023-06-10T08:40:22;8.77;;;6.10;;
66327;SDS011;53133;52.862;6.602;2023-06-10T08:43:22;9.77;;;6.00;;
66327;SDS011;53133;52.862;6.602;2023-06-10T08:45:47;9.50;;;6.43;;
66327;SDS011;53133;52.862;6.602;2023-06-10T08:48:14;10.35;;;5.78;;
66327;SDS011;53133;52.862;6.602;2023-06-10T08:50:42;11.52;;;6.65;;
66327;SDS011;53133;52.862;6.602;2023-06-10T08:53:08;10.30;;;5.95;;
66327;SDS011;53133;52.862;6.602;2023-06-10T08:55:36;9.27;;;5.50;;
66327;SDS011;53133;52.862;6.602;2023-06-10T08:58:03;9.18;;;5.45;;
66327;SDS011;53133;52.862;6.602;2023-06-10T09:00:30;9.57;;;5.60;;
66327;SDS011;53133;52.862;6.602;2023-06-10T09:02:57;8.40;;;5.07;;
66327;SDS011;53133;52.862;6.602;2023-06-10T09:05:23;8.25;;;5.20;;
66327;SDS011;53133;52.862;6.602;2023-06-10T09:07:49;8.52;;;5.20;;
66327;SDS011;53133;52.862;6.602;2023-06-10T09:10:17;8.73;;;5.22;;
66327;SDS011;53133;52.862;6.602;2023-06-10T09:12:43;7.07;;;5.20;;
66327;SDS011;53133;52.862;6.602;2023-06-10T09:15:09;8.98;;;5.32;;
66327;SDS011;53133;52.862;6.602;2023-06-10T09:17:36;12.15;;;6.20;;
66327;SDS011;53133;52.862;6.602;2023-06-10T09:20:03;8.52;;;5.13;;
66327;SDS011;53133;52.862;6.602;2023-06-10T09:22:29;8.18;;;5.00;;
66327;SDS011;53133;52.862;6.602;2023-06-10T09:25:04;7.55;;;5.20;;
66327;SDS011;53133;52.862;6.602;2023-06-10T09:27:50;8.32;;;5.35;;
66327;SDS011;53133;52.862;6.602;2023-06-10T09:32:54;8.38;;;5.13;;
66327;SDS011;53133;52.862;6.602;2023-06-10T09:35:22;8.82;;;5.30;;
66327;SDS011;53133;52.862;6.602;2023-06-10T09:37:49;5.82;;;4.80;;
66327;SDS011;53133;52.862;6.602;2023-06-10T09:40:16;8.52;;;5.10;;
66327;SDS011;53133;52.862;6.602;2023-06-10T09:42:45;7.93;;;5.18;;
66327;SDS011;53133;52.862;6.602;2023-06-10T09:45:14;5.38;;;4.28;;
66327;SDS011;53133;52.862;6.602;2023-06-10T09:47:39;6.05;;;4.50;;
66327;SDS011;53133;52.862;6.602;2023-06-10T09:50:05;6.70;;;4.47;;
66327;SDS011;53133;52.862;6.602;2023-06-10T09:52:31;6.70;;;4.47;;
66327;SDS011;53133;52.862;6.602;2023-06-10T09:55:01;7.63;;;4.10;;
66327;SDS011;53133;52.862;6.602;2023-06-10T09:57:30;7.00;;;4.45;;
66327;SDS011;53133;52.862;6.602;2023-06-10T10:00:04;8.05;;;4.38;;
66327;SDS011;53133;52.862;6.602;2023-06-10T10:02:43;6.75;;;4.55;;
66327;SDS011;53133;52.862;6.602;2023-06-10T10:05:16;7.88;;;4.00;;
66327;SDS011;53133;52.862;6.602;2023-06-10T10:07:44;5.60;;;4.25;;
66327;SDS011;53133;52.862;6.602;2023-06-10T10:10:10;6.32;;;4.10;;
66327;SDS011;53133;52.862;6.602;2023-06-10T10:12:40;6.18;;;4.28;;
66327;SDS011;53133;52.862;6.602;2023-06-10T10:15:10;5.32;;;3.88;;
66327;SDS011;53133;52.862;6.602;2023-06-10T10:17:38;5.03;;;3.60;;
66327;SDS011;53133;52.862;6.602;2023-06-10T10:20:10;4.60;;;4.00;;
66327;SDS011;53133;52.862;6.602;2023-06-10T10:22:39;6.03;;;4.10;;
66327;SDS011;53133;52.862;6.602;2023-06-10T10:25:49;6.00;;;4.10;;
66327;SDS011;53133;52.862;6.602;2023-06-10T10:28:18;5.10;;;3.42;;
66327;SDS011;53133;52.862;6.602;2023-06-10T10:30:47;8.90;;;4.28;;
66327;SDS011;53133;52.862;6.602;2023-06-10T10:33:16;5.13;;;3.92;;
66327;SDS011;53133;52.862;6.602;2023-06-10T10:36:12;9.43;;;4.28;;
66327;SDS011;53133;52.862;6.602;2023-06-10T10:38:39;6.75;;;4.20;;
66327;SDS011;53133;52.862;6.602;2023-06-10T10:41:06;6.53;;;3.97;;
66327;SDS011;53133;52.862;6.602;2023-06-10T10:43:33;5.07;;;4.20;;
66327;SDS011;53133;52.862;6.602;2023-06-10T10:45:59;5.07;;;4.28;;
66327;SDS011;53133;52.862;6.602;2023-06-10T10:48:26;5.47;;;3.97;;
66327;SDS011;53133;52.862;6.602;2023-06-10T10:50:58;5.50;;;3.92;;
66327;SDS011;53133;52.862;6.602;2023-06-10T10:53:24;5.57;;;3.80;;
66327;SDS011;53133;52.862;6.602;2023-06-10T10:58:25;4.88;;;3.60;;
66327;SDS011;53133;52.862;6.602;2023-06-10T11:00:51;5.28;;;3.78;;
66327;SDS011;53133;52.862;6.602;2023-06-10T11:03:17;5.45;;;3.50;;
66327;SDS011;53133;52.862;6.602;2023-06-10T11:05:43;8.80;;;3.80;;
66327;SDS011;53133;52.862;6.602;2023-06-10T11:08:13;6.72;;;3.70;;
66327;SDS011;53133;52.862;6.602;2023-06-10T11:10:40;8.20;;;3.90;;
66327;SDS011;53133;52.862;6.602;2023-06-10T11:13:12;5.80;;;3.72;;
66327;SDS011;53133;52.862;6.602;2023-06-10T11:15:39;4.85;;;3.80;;
66327;SDS011;53133;52.862;6.602;2023-06-10T11:28:37;7.00;;;3.33;;
66327;SDS011;53133;52.862;6.602;2023-06-10T11:31:03;5.03;;;3.45;;
66327;SDS011;53133;52.862;6.602;2023-06-10T11:33:28;4.93;;;3.13;;
66327;SDS011;53133;52.862;6.602;2023-06-10T11:35:55;4.70;;;3.35;;
66327;SDS011;53133;52.862;6.602;2023-06-10T11:38:21;5.25;;;3.38;;
66327;SDS011;53133;52.862;6.602;2023-06-10T11:40:49;4.85;;;3.47;;
66327;SDS011;53133;52.862;6.602;2023-06-10T11:43:16;5.68;;;3.72;;
66327;SDS011;53133;52.862;6.602;2023-06-10T11:45:42;5.70;;;3.65;;
66327;SDS011;53133;52.862;6.602;2023-06-10T11:48:08;4.40;;;2.90;;
66327;SDS011;53133;52.862;6.602;2023-06-10T11:50:34;7.68;;;2.90;;
66327;SDS011;53133;52.862;6.602;2023-06-10T11:53:01;6.93;;;3.25;;
66327;SDS011;53133;52.862;6.602;2023-06-10T11:55:43;7.03;;;3.30;;
66327;SDS011;53133;52.862;6.602;2023-06-10T11:58:13;5.95;;;3.63;;
66327;SDS011;53133;52.862;6.602;2023-06-10T12:00:49;5.10;;;3.60;;
66327;SDS011;53133;52.862;6.602;2023-06-10T12:03:16;4.82;;;3.25;;
66327;SDS011;53133;52.862;6.602;2023-06-10T12:05:58;5.78;;;3.38;;
66327;SDS011;53133;52.862;6.602;2023-06-10T12:08:25;3.28;;;2.75;;
66327;SDS011;53133;52.862;6.602;2023-06-10T12:10:52;4.78;;;3.03;;
66327;SDS011;53133;52.862;6.602;2023-06-10T12:13:18;7.82;;;3.55;;
66327;SDS011;53133;52.862;6.602;2023-06-10T12:15:44;5.38;;;3.17;;
66327;SDS011;53133;52.862;6.602;2023-06-10T12:18:19;4.85;;;3.28;;
66327;SDS011;53133;52.862;6.602;2023-06-10T12:20:46;5.35;;;3.50;;
66327;SDS011;53133;52.862;6.602;2023-06-10T12:23:13;5.28;;;3.50;;
66327;SDS011;53133;52.862;6.602;2023-06-10T12:25:41;7.13;;;3.30;;
66327;SDS011;53133;52.862;6.602;2023-06-10T12:28:16;7.03;;;3.63;;
66327;SDS011;53133;52.862;6.602;2023-06-10T12:30:42;6.38;;;3.00;;
66327;SDS011;53133;52.862;6.602;2023-06-10T12:33:15;6.40;;;3.10;;
66327;SDS011;53133;52.862;6.602;2023-06-10T12:35:46;4.82;;;3.38;;
66327;SDS011;53133;52.862;6.602;2023-06-10T12:38:14;5.13;;;2.88;;
66327;SDS011;53133;52.862;6.602;2023-06-10T12:40:47;4.43;;;3.25;;
66327;SDS011;53133;52.862;6.602;2023-06-10T12:43:12;4.43;;;3.08;;
66327;SDS011;53133;52.862;6.602;2023-06-10T12:45:39;4.70;;;2.88;;
66327;SDS011;53133;52.862;6.602;2023-06-10T12:50:36;5.53;;;2.80;;
66327;SDS011;53133;52.862;6.602;2023-06-10T12:53:05;4.28;;;2.80;;
66327;SDS011;53133;52.862;6.602;2023-06-10T12:55:31;5.53;;;2.50;;
66327;SDS011;53133;52.862;6.602;2023-06-10T12:57:57;4.90;;;2.85;;
66327;SDS011;53133;52.862;6.602;2023-06-10T13:00:23;5.90;;;3.00;;
66327;SDS011;53133;52.862;6.602;2023-06-10T13:02:51;3.88;;;3.35;;
66327;SDS011;53133;52.862;6.602;2023-06-10T13:05:18;3.60;;;3.10;;
66327;SDS011;53133;52.862;6.602;2023-06-10T13:07:45;3.95;;;2.72;;
66327;SDS011;53133;52.862;6.602;2023-06-10T13:10:11;4.25;;;2.90;;
66327;SDS011;53133;52.862;6.602;2023-06-10T13:12:41;3.33;;;2.60;;
66327;SDS011;53133;52.862;6.602;2023-06-10T13:15:07;5.10;;;3.03;;
66327;SDS011;53133;52.862;6.602;2023-06-10T13:17:33;3.25;;;2.58;;
66327;SDS011;53133;52.862;6.602;2023-06-10T13:20:00;5.13;;;2.80;;
66327;SDS011;53133;52.862;6.602;2023-06-10T13:22:32;3.85;;;3.00;;
66327;SDS011;53133;52.862;6.602;2023-06-10T13:25:00;5.05;;;3.22;;
66327;SDS011;53133;52.862;6.602;2023-06-10T13:27:25;3.58;;;2.67;;
66327;SDS011;53133;52.862;6.602;2023-06-10T13:29:52;4.28;;;2.67;;
66327;SDS011;53133;52.862;6.602;2023-06-10T13:32:18;4.18;;;2.90;;
66327;SDS011;53133;52.862;6.602;2023-06-10T13:34:43;3.63;;;2.60;;
66327;SDS011;53133;52.862;6.602;2023-06-10T13:37:09;5.32;;;3.08;;
66327;SDS011;53133;52.862;6.602;2023-06-10T13:39:35;3.75;;;3.17;;
66327;SDS011;53133;52.862;6.602;2023-06-10T13:42:01;6.53;;;3.28;;
66327;SDS011;53133;52.862;6.602;2023-06-10T13:44:26;4.95;;;3.03;;
66327;SDS011;53133;52.862;6.602;2023-06-10T13:46:55;4.40;;;2.90;;
66327;SDS011;53133;52.862;6.602;2023-06-10T13:49:21;7.68;;;3.47;;
66327;SDS011;53133;52.862;6.602;2023-06-10T13:51:47;4.53;;;3.05;;
66327;SDS011;53133;52.862;6.602;2023-06-10T13:54:13;3.80;;;2.65;;
66327;SDS011;53133;52.862;6.602;2023-06-10T13:56:40;3.75;;;2.90;;
66327;SDS011;53133;52.862;6.602;2023-06-10T13:59:06;3.95;;;3.30;;
66327;SDS011;53133;52.862;6.602;2023-06-10T14:01:31;4.22;;;2.97;;
66327;SDS011;53133;52.862;6.602;2023-06-10T14:03:57;5.95;;;2.88;;
66327;SDS011;53133;52.862;6.602;2023-06-10T14:06:23;6.97;;;3.03;;
66327;SDS011;53133;52.862;6.602;2023-06-10T14:08:48;6.47;;;2.83;;
66327;SDS011;53133;52.862;6.602;2023-06-10T14:11:14;4.90;;;3.10;;
66327;SDS011;53133;52.862;6.602;2023-06-10T14:13:40;6.22;;;3.00;;
66327;SDS011;53133;52.862;6.602;2023-06-10T14:16:05;4.90;;;3.00;;
66327;SDS011;53133;52.862;6.602;2023-06-10T14:18:31;4.93;;;3.05;;
66327;SDS011;53133;52.862;6.602;2023-06-10T14:20:56;4.63;;;2.80;;
66327;SDS011;53133;52.862;6.602;2023-06-10T14:23:22;3.28;;;2.92;;
66327;SDS011;53133;52.862;6.602;2023-06-10T14:25:49;5.28;;;2.80;;
66327;SDS011;53133;52.862;6.602;2023-06-10T14:28:15;5.43;;;2.80;;
66327;SDS011;53133;52.862;6.602;2023-06-10T14:30:40;4.30;;;2.40;;
66327;SDS011;53133;52.862;6.602;2023-06-10T14:33:06;5.63;;;2.90;;
66327;SDS011;53133;52.862;6.602;2023-06-10T14:35:31;6.00;;;2.90;;
66327;SDS011;53133;52.862;6.602;2023-06-10T14:37:57;3.28;;;2.78;;
66327;SDS011;53133;52.862;6.602;2023-06-10T14:40:22;5.38;;;2.75;;
66327;SDS011;53133;52.862;6.602;2023-06-10T14:42:49;3.55;;;2.70;;
66327;SDS011;53133;52.862;6.602;2023-06-10T14:45:15;6.05;;;2.80;;
66327;SDS011;53133;52.862;6.602;2023-06-10T14:47:41;3.55;;;3.00;;
66327;SDS011;53133;52.862;6.602;2023-06-10T14:50:06;4.57;;;2.92;;
66327;SDS011;53133;52.862;6.602;2023-06-10T14:52:32;5.18;;;3.28;;
66327;SDS011;53133;52.862;6.602;2023-06-10T14:54:58;4.30;;;3.00;;
66327;SDS011;53133;52.862;6.602;2023-06-10T14:57:23;5.38;;;3.20;;
66327;SDS011;53133;52.862;6.602;2023-06-10T14:59:49;3.88;;;2.92;;